Latest Coastal Weather Observations for Port Kembla Harbour

IDN60701

Issued at 7:05 pm EST Saturday 26 July 2014 (issued every 10 minutes, with the page automatically refreshed every 10 minutes)

About coastal observations | Map of coastal stations | Coastal observations for NSW | Marine services | Other Formats
Station Details ID: 068253 Name: PORT KEMBLA NTC AWS Lat: -34.47 Lon: 150.91 Height: 0.0 m
Data from the previous 72 hours. | See also: Recent months for locations in New South Wales
Date/Time
EST
Temp

°C
Wind Pressure Rain
since 9am
mm
Weather Cloud Vis
km
Sea
Height
m
Swell
Dir
 
Speed
knots
Gust
knots
hPa Trend Height
m
Period
s
Dir
26/07:00pm 15.6 SSW 3 6 1021.9 - - - - - - - - -
26/06:30pm 16.1 WSW 4 7 1021.5 - - - - - - - - -
26/06:00pm 17.1 WSW 7 12 1021.0 - - - - - - - - -
26/05:30pm 17.4 WSW 7 9 1020.5 - - - - - - - - -
26/05:00pm 17.9 WSW 9 13 1020.3 - - - - - - - - -
26/04:30pm 18.4 WSW 12 17 1020.1 - - - - - - - - -
26/04:00pm 19.3 WSW 11 16 1019.6 - - - - - - - - -
26/03:30pm 19.6 W 13 18 1019.4 - - - - - - - - -
26/03:00pm 19.8 WSW 9 14 1019.2 - - - - - - - - -
26/02:30pm 19.4 W 6 13 1019.2 - - - - - - - - -
26/02:00pm 18.5 WNW 6 9 1019.2 - - - - - - - - -
26/01:30pm 17.9 W 8 11 1019.5 - - - - - - - - -
26/01:00pm 17.6 SSW 5 10 1019.9 - - - - - - - - -
26/12:30pm 18.1 W 7 9 1020.6 - - - - - - - - -
26/12:00pm 17.3 W 7 10 1021.3 - - - - - - - - -
26/11:30am 16.3 W 3 5 1021.9 - - - - - - - - -
26/11:00am 16.1 WSW 3 5 1022.1 - - - - - - - - -
26/10:30am 15.7 WNW 4 6 1022.6 - - - - - - - - -
26/10:00am 15.8 NW 5 8 1023.1 - - - - - - - - -
26/09:30am 15.2 N 4 7 1023.0 - - - - - - - - -
26/09:00am 15.1 WNW 7 9 1023.0 - - - - - - - - -
26/08:30am 15.7 N 6 7 1022.6 - - - - - - - - -
26/08:00am 15.8 NNW 5 8 1022.8 - - - - - - - - -
26/07:30am 16.0 N 5 8 1023.0 - - - - - - - - -
26/07:00am 15.8 NNW 2 6 1022.9 - - - - - - - - -
26/06:30am 15.7 W 5 7 1022.2 - - - - - - - - -
26/06:00am 15.9 WSW 4 9 1021.8 - - - - - - - - -
26/05:30am 15.2 SE 1 2 1021.7 - - - - - - - - -
26/05:00am 15.8 W 4 6 1021.2 - - - - - - - - -
26/04:30am 16.1 W 6 8 1021.7 - - - - - - - - -
26/04:00am 16.1 W 9 11 1021.6 - - - - - - - - -
26/03:30am 16.4 W 10 12 1021.4 - - - - - - - - -
26/03:00am 14.8 W 5 7 1021.1 - - - - - - - - -
26/02:30am 15.6 WSW 3 4 1021.3 - - - - - - - - -
26/02:00am 15.0 W 4 5 1021.5 - - - - - - - - -
26/01:30am 15.4 WSW 3 5 1021.7 - - - - - - - - -
26/01:00am 15.4 WSW 3 5 1021.8 - - - - - - - - -
26/12:30am 16.0 W 5 6 1021.9 - - - - - - - - -
26/12:00am 17.0 NW 3 6 1022.0 - - - - - - - - -
 
Date/Time
EST
Temp

°C
Wind Pressure Rain
since 9am
mm
Weather Cloud Vis
km
Sea
Height
m
Swell
Dir
 
Speed
knots
Gust
knots
hPa Trend Height
m
Period
s
Dir
25/11:30pm 16.9 ENE 1 2 1021.9 - - - - - - - - -
25/11:00pm 17.1 NNW 5 9 1021.8 - - - - - - - - -
25/10:30pm 17.6 NW 5 9 1021.6 - - - - - - - - -
25/10:00pm 17.9 NW 5 8 1021.6 - - - - - - - - -
25/09:30pm 18.2 WNW 6 9 1021.4 - - - - - - - - -
25/09:00pm 18.1 WNW 6 10 1021.2 - - - - - - - - -
25/08:30pm 18.4 WNW 8 13 1020.9 - - - - - - - - -
25/08:00pm 18.6 NW 9 11 1020.8 - - - - - - - - -
25/07:30pm 18.8 NW 7 9 1020.5 - - - - - - - - -
25/07:00pm 18.9 NNW 8 11 1020.2 - - - - - - - - -
25/06:30pm 18.9 NNW 6 8 1019.9 - - - - - - - - -
25/06:00pm 19.2 NW 5 9 1019.4 - - - - - - - - -
25/05:30pm 18.7 NNE 7 10 1019.0 - - - - - - - - -
25/05:00pm 18.4 NNE 7 11 1018.6 - - - - - - - - -
25/04:30pm 18.5 NE 9 12 1018.4 - - - - - - - - -
25/04:00pm 18.3 NNE 9 13 1018.4 - - - - - - - - -
25/03:30pm 18.0 NNE 11 14 1018.6 - - - - - - - - -
25/03:00pm 17.9 NE 10 13 1018.5 - - - - - - - - -
25/02:30pm 17.7 NE 10 14 1018.3 - - - - - - - - -
25/02:00pm 17.6 NE 9 12 1018.2 - - - - - - - - -
25/01:30pm 18.8 NNE 7 9 1018.5 - - - - - - - - -
25/01:00pm 18.2 N 6 10 1018.8 - - - - - - - - -
25/12:30pm 18.4 N 6 8 1019.1 - - - - - - - - -
25/12:00pm 17.4 NNW 10 15 1019.5 - - - - - - - - -
25/11:30am 17.3 NNW 13 17 1019.9 - - - - - - - - -
25/11:00am 17.8 NNE 8 15 1020.7 - - - - - - - - -
25/10:30am 17.1 NE 11 17 1021.3 - - - - - - - - -
25/10:00am 17.6 S 2 5 1021.2 - - - - - - - - -
25/09:30am 17.2 NNE 7 14 1020.9 - - - - - - - - -
25/09:00am 15.8 W 5 9 1020.9 - - - - - - - - -
25/08:30am 15.4 W 7 11 1020.8 - - - - - - - - -
25/08:00am 13.9 SW 3 6 1020.3 - - - - - - - - -
25/07:30am 12.9 SW 3 4 1020.2 - - - - - - - - -
25/07:00am 12.3 WSW 2 3 1019.7 - - - - - - - - -
25/06:30am 12.1 WSW 3 4 1019.5 - - - - - - - - -
25/06:00am 12.8 WSW 2 3 1019.3 - - - - - - - - -
25/05:30am 12.6 WSW 3 4 1019.0 - - - - - - - - -
25/05:00am 13.3 SSW 1 1 1019.0 - - - - - - - - -
25/04:30am 13.0 WSW 2 3 1019.0 - - - - - - - - -
25/04:00am 13.2 SW 3 4 1018.8 - - - - - - - - -
25/03:30am 12.8 WSW 3 4 1018.9 - - - - - - - - -
25/03:00am 13.3 W 1 2 1019.1 - - - - - - - - -
25/02:30am 14.6 SSW 1 2 1019.1 - - - - - - - - -
25/02:00am 14.3 SSW 2 3 1019.2 - - - - - - - - -
25/01:30am 15.7 N 2 4 1019.2 - - - - - - - - -
25/01:00am 15.5 NE 2 4 1019.0 - - - - - - - - -
25/12:30am 15.5 ENE 3 5 1019.1 - - - - - - - - -
25/12:00am 15.8 N 6 10 1019.4 - - - - - - - - -
 
Date/Time
EST
Temp

°C
Wind Pressure Rain
since 9am
mm
Weather Cloud Vis
km
Sea
Height
m
Swell
Dir
 
Speed
knots
Gust
knots
hPa Trend Height
m
Period
s
Dir
24/11:30pm 15.1 N 4 7 1019.5 - - - - - - - - -
24/11:00pm 15.3 N 5 9 1019.6 - - - - - - - - -
24/10:30pm 15.5 N 7 10 1019.7 - - - - - - - - -
24/10:00pm 15.9 NNW 8 11 1019.8 - - - - - - - - -
24/09:30pm 15.2 WSW 4 7 1019.7 - - - - - - - - -
24/09:00pm 16.2 N 5 8 1019.8 - - - - - - - - -
24/08:30pm 16.1 N 8 12 1019.6 - - - - - - - - -
24/08:00pm 16.0 NNW 6 8 1019.5 - - - - - - - - -
24/07:30pm 16.0 NW 3 6 1019.3 - - - - - - - - -
24/07:00pm 16.4 N 6 9 1019.0 - - - - - - - - -
24/06:30pm 16.4 NNW 6 9 1018.8 - - - - - - - - -
24/06:00pm 16.6 NNE 5 7 1018.5 - - - - - - - - -
24/05:30pm 16.7 N 7 10 1018.4 - - - - - - - - -
24/05:00pm 16.5 N 6 10 1018.5 - - - - - - - - -
24/04:30pm 16.5 NNE 8 12 1018.3 - - - - - - - - -
24/04:00pm 16.3 NNE 10 13 1018.2 - - - - - - - - -
24/03:30pm 16.1 NNE 11 15 1018.0 - - - - - - - - -
24/03:00pm 16.1 NE 12 15 1018.0 - - - - - - - - -
24/02:30pm 16.3 NE 11 15 1018.1 - - - - - - - - -
24/02:00pm 16.3 NNE 10 13 1018.4 - - - - - - - - -
24/01:30pm 16.4 NE 7 10 1018.9 - - - - - - - - -
24/01:00pm 16.0 NNE 6 8 1019.3 - - - - - - - - -
24/12:30pm 15.9 NNE 7 10 1019.6 - - - - - - - - -
24/12:00pm 15.8 NNE 8 11 1020.3 - - - - - - - - -
24/11:30am 15.8 NNE 9 12 1020.8 - - - - - - - - -
24/11:00am 15.9 N 7 10 1021.4 - - - - - - - - -
24/10:30am 15.7 NNE 7 10 1021.6 - - - - - - - - -
24/10:00am 15.5 NNW 5 7 1021.9 - - - - - - - - -
24/09:30am 15.2 NNE 4 6 1021.7 - - - - - - - - -
24/09:00am 14.9 NNW 3 5 1021.8 - - - - - - - - -
24/08:30am 14.7 N 2 4 1021.4 - - - - - - - - -
24/08:00am 14.1 NW 5 6 1021.2 - - - - - - - - -
24/07:30am 14.1 NNW 4 6 1021.3 - - - - - - - - -
24/07:00am 14.1 NW 6 8 1021.2 - - - - - - - - -
24/06:30am 13.5 NW 4 7 1021.0 - - - - - - - - -
24/06:00am 13.4 NW 6 8 1020.6 - - - - - - - - -
24/05:30am 13.9 NW 7 9 1020.3 - - - - - - - - -

Other Formats:

Comma delimited format used in spreadsheet applications
http://www.bom.gov.au/fwo/IDN60701/IDN60701.95745.axf

JavaScript Object Notation format (JSON) in row-major order
http://www.bom.gov.au/fwo/IDN60701/IDN60701.95745.json